createdAt,value
2018-10-03T00:00:59.287Z,6.07
2018-10-03T00:05:43.631Z,6.67
2018-10-03T00:10:27.325Z,6.80
2018-10-03T00:15:11.061Z,6.33
2018-10-03T00:19:54.939Z,6.30
2018-10-03T00:24:39.369Z,6.87
2018-10-03T00:29:23.173Z,6.57
2018-10-03T00:34:07.345Z,6.60
2018-10-03T00:38:51.205Z,7.40
2018-10-03T00:43:35.116Z,6.50
2018-10-03T00:48:18.909Z,6.23
2018-10-03T00:53:02.695Z,6.90
2018-10-03T00:57:46.443Z,6.83
2018-10-03T01:02:30.567Z,7.37
2018-10-03T01:07:14.421Z,6.60
2018-10-03T01:11:58.139Z,6.07
2018-10-03T01:16:43.027Z,6.30
2018-10-03T01:21:27.009Z,5.87
2018-10-03T01:26:11.029Z,5.90
2018-10-03T01:30:54.769Z,6.20
2018-10-03T01:35:39.072Z,5.67
2018-10-03T01:40:23.007Z,4.70
2018-10-03T01:45:06.857Z,4.97
2018-10-03T01:49:50.635Z,4.73
2018-10-03T01:54:34.887Z,3.83
2018-10-03T01:59:18.618Z,3.53
2018-10-03T02:04:02.754Z,3.17
2018-10-03T02:08:46.757Z,2.73
2018-10-03T02:13:30.733Z,2.33
2018-10-03T02:18:14.475Z,2.40
2018-10-03T02:22:58.225Z,2.73
2018-10-03T02:27:41.997Z,2.47
2018-10-03T02:32:25.867Z,2.70
2018-10-03T02:37:09.821Z,2.53
2018-10-03T02:41:53.619Z,2.93
2018-10-03T02:46:37.440Z,2.90
2018-10-03T02:51:21.490Z,2.67
2018-10-03T02:56:05.209Z,3.00
2018-10-03T03:00:48.953Z,2.63
2018-10-03T03:05:32.628Z,2.90
2018-10-03T03:10:16.376Z,2.37
2018-10-03T03:15:00.260Z,2.53
2018-10-03T03:19:44.560Z,2.13
2018-10-03T03:24:28.363Z,2.33
2018-10-03T03:29:13.002Z,2.70
2018-10-03T03:33:56.889Z,3.23
2018-10-03T03:38:40.581Z,2.80
2018-10-03T03:43:24.329Z,3.17
2018-10-03T03:48:08.173Z,3.00
2018-10-03T03:52:52.005Z,3.30
2018-10-03T03:57:35.702Z,2.63
2018-10-03T04:02:19.748Z,3.17
2018-10-03T04:07:03.450Z,2.87
2018-10-03T04:11:47.404Z,2.70
2018-10-03T04:16:32.150Z,2.50
2018-10-03T04:21:16.067Z,3.07
2018-10-03T04:25:59.773Z,3.00
2018-10-03T04:30:43.493Z,2.70
2018-10-03T04:35:27.390Z,2.63
2018-10-03T04:40:11.120Z,2.67
2018-10-03T04:44:54.923Z,2.40
2018-10-03T04:49:39.439Z,2.57
2018-10-03T04:54:23.316Z,2.43
2018-10-03T04:59:07.105Z,2.50
2018-10-03T05:03:50.828Z,2.27
2018-10-03T05:08:34.610Z,3.00
2018-10-03T05:13:18.336Z,2.83
2018-10-03T05:18:02.404Z,2.67
2018-10-03T05:22:46.192Z,2.53
2018-10-03T05:27:30.164Z,2.40
2018-10-03T05:32:13.980Z,2.03
2018-10-03T05:36:57.824Z,2.03
2018-10-03T05:41:42.156Z,1.90
2018-10-03T05:46:25.976Z,2.07
2018-10-03T05:51:09.695Z,2.70
2018-10-03T05:55:53.644Z,2.30
2018-10-03T06:00:37.705Z,2.70
2018-10-03T06:05:21.702Z,3.03
2018-10-03T06:10:05.828Z,2.00
2018-10-03T06:14:49.670Z,2.03
2018-10-03T06:19:33.450Z,2.10
2018-10-03T06:24:18.554Z,2.43
2018-10-03T06:29:05.350Z,2.33
2018-10-03T06:33:49.421Z,2.20
2018-10-03T06:38:33.197Z,2.70
2018-10-03T06:43:16.992Z,2.20
2018-10-03T06:48:00.718Z,2.03
2018-10-03T06:52:44.534Z,2.63
2018-10-03T06:57:28.989Z,2.03
2018-10-03T07:02:13.207Z,2.00
2018-10-03T07:06:58.150Z,1.90
2018-10-03T07:11:42.532Z,2.40
2018-10-03T07:16:26.510Z,2.30
2018-10-03T07:21:10.457Z,2.10
2018-10-03T07:25:54.541Z,2.60
2018-10-03T07:30:38.642Z,2.20
2018-10-03T07:35:22.530Z,2.67
2018-10-03T07:40:07.315Z,2.67
2018-10-03T07:44:51.334Z,2.23
2018-10-03T07:49:35.286Z,2.27
2018-10-03T07:54:19.251Z,2.57
2018-10-03T07:59:03.481Z,2.43
2018-10-03T08:03:48.318Z,2.40
2018-10-03T08:08:32.350Z,2.57
2018-10-03T08:13:16.216Z,3.07
2018-10-03T08:17:59.996Z,2.43
2018-10-03T08:22:45.979Z,2.50
2018-10-03T08:27:29.821Z,3.93
2018-10-03T08:32:13.751Z,2.03
2018-10-03T08:41:53.018Z,3.07
2018-10-03T08:46:36.849Z,3.03
2018-10-03T08:51:20.710Z,3.10
2018-10-03T08:56:06.294Z,2.37
2018-10-03T09:00:56.442Z,3.00
2018-10-03T09:05:40.279Z,2.80
2018-10-03T09:10:24.227Z,2.73
2018-10-03T09:15:08.141Z,2.13
2018-10-03T09:19:53.573Z,2.37
2018-10-03T09:24:38.705Z,2.40
2018-10-03T09:29:22.821Z,2.53
2018-10-03T09:34:09.208Z,2.50
2018-10-03T09:38:53.237Z,2.10
2018-10-03T09:43:37.383Z,2.83
2018-10-03T09:48:22.482Z,3.07
2018-10-03T09:53:06.716Z,2.50
2018-10-03T09:57:50.891Z,2.20
2018-10-03T10:02:34.781Z,2.40
2018-10-03T10:07:18.937Z,2.53
2018-10-03T10:12:02.902Z,2.90
2018-10-03T10:16:46.756Z,2.60
2018-10-03T10:21:30.810Z,2.53
2018-10-03T10:26:15.051Z,2.87
2018-10-03T10:31:00.259Z,1.97
2018-10-03T10:35:44.515Z,2.30
2018-10-03T10:40:28.540Z,2.57
2018-10-03T10:45:12.123Z,2.17
2018-10-03T10:49:56.033Z,2.60
2018-10-03T10:54:40.039Z,2.67
2018-10-03T10:59:23.857Z,2.17
2018-10-03T11:04:08.445Z,2.67
2018-10-03T11:08:52.427Z,2.30
2018-10-03T11:13:36.309Z,1.90
2018-10-03T11:18:21.038Z,1.93
2018-10-03T11:23:05.000Z,2.87
2018-10-03T11:27:51.014Z,2.60
2018-10-03T11:32:35.083Z,2.33
2018-10-03T11:37:20.092Z,2.80
2018-10-03T11:42:05.057Z,2.60
2018-10-03T11:46:51.967Z,2.60
2018-10-03T11:51:39.452Z,2.33
2018-10-03T11:56:27.822Z,2.77
2018-10-03T12:01:11.907Z,2.13
2018-10-03T12:05:56.111Z,1.53
2018-10-03T12:10:41.779Z,2.33
2018-10-03T12:15:26.278Z,1.87
2018-10-03T12:20:10.367Z,1.90
2018-10-03T12:24:55.954Z,2.50
2018-10-03T12:29:40.706Z,2.33
2018-10-03T12:34:25.073Z,2.23
2018-10-03T12:39:10.163Z,1.97
2018-10-03T12:43:55.325Z,2.43
2018-10-03T12:48:39.292Z,1.83
2018-10-03T12:53:23.233Z,1.97
2018-10-03T12:58:07.217Z,1.70
2018-10-03T13:02:51.617Z,1.93
2018-10-03T13:07:36.294Z,2.00
2018-10-03T13:12:20.248Z,2.20
2018-10-03T13:17:07.040Z,2.10
2018-10-03T13:21:50.963Z,1.50
2018-10-03T13:26:34.987Z,2.07
2018-10-03T13:31:18.926Z,1.60
2018-10-03T13:36:02.719Z,1.77
2018-10-03T13:40:47.658Z,1.60
2018-10-03T13:45:32.413Z,1.33
2018-10-03T13:50:16.551Z,1.10
2018-10-03T13:55:01.339Z,1.40
2018-10-03T13:59:47.149Z,1.27
2018-10-03T14:04:30.997Z,0.87
2018-10-03T14:09:15.875Z,1.20
2018-10-03T14:13:59.720Z,1.60
2018-10-03T14:18:43.494Z,1.57
2018-10-03T14:23:27.204Z,1.30
2018-10-03T14:28:11.188Z,1.47
2018-10-03T14:32:55.125Z,1.47
2018-10-03T14:37:39.125Z,1.83
2018-10-03T14:42:23.608Z,1.87
2018-10-03T14:47:08.728Z,1.90
2018-10-03T14:51:53.048Z,1.50
2018-10-03T14:56:37.057Z,1.30
2018-10-03T15:01:20.993Z,1.43
2018-10-03T15:06:05.481Z,1.93
2018-10-03T15:10:51.618Z,1.83
2018-10-03T15:15:35.429Z,1.60
2018-10-03T15:20:20.547Z,1.70
2018-10-03T15:25:04.664Z,1.80
2018-10-03T15:29:48.741Z,1.80
2018-10-03T15:34:32.597Z,2.30
2018-10-03T15:39:16.332Z,2.03
2018-10-03T15:44:00.120Z,2.00
2018-10-03T15:48:44.152Z,1.70
2018-10-03T15:53:28.075Z,1.87
2018-10-03T15:58:11.832Z,1.80
2018-10-03T16:02:56.208Z,1.70
2018-10-03T16:07:40.068Z,2.13
2018-10-03T16:12:24.115Z,1.90
2018-10-03T16:17:07.886Z,2.90
2018-10-03T16:21:51.824Z,2.20
2018-10-03T16:26:35.851Z,1.50
2018-10-03T16:31:19.676Z,1.93
2018-10-03T16:36:03.481Z,1.90
2018-10-03T16:40:47.400Z,1.90
2018-10-03T16:45:31.512Z,2.23
2018-10-03T16:50:15.490Z,2.30
2018-10-03T16:54:59.450Z,2.33
2018-10-03T16:59:44.660Z,2.37
2018-10-03T17:04:29.179Z,2.07
2018-10-03T17:09:13.279Z,2.40
2018-10-03T17:14:35.936Z,1.80
2018-10-03T17:19:22.471Z,1.70
2018-10-03T17:24:07.937Z,1.50
2018-10-03T17:28:51.918Z,1.60
2018-10-03T17:33:36.792Z,1.90
2018-10-03T17:38:20.917Z,2.00
2018-10-03T17:43:05.385Z,2.27
2018-10-03T17:47:50.887Z,2.00
2018-10-03T17:52:35.816Z,1.87
2018-10-03T17:57:21.647Z,1.70
2018-10-03T18:02:10.905Z,1.47
2018-10-03T18:06:55.009Z,2.00
2018-10-03T18:11:43.997Z,1.50
2018-10-03T18:16:33.367Z,2.43
2018-10-03T18:21:24.209Z,2.00
2018-10-03T18:26:09.049Z,1.77
2018-10-03T18:30:56.976Z,1.83
2018-10-03T18:35:42.141Z,1.90
2018-10-03T18:40:26.914Z,1.70
2018-10-03T18:45:12.449Z,1.87
2018-10-03T18:50:05.143Z,1.80
2018-10-03T18:54:51.257Z,1.70
2018-10-03T18:59:36.227Z,1.50
2018-10-03T19:04:20.506Z,1.70
2018-10-03T19:09:06.628Z,1.60
2018-10-03T19:13:50.786Z,1.50
2018-10-03T19:18:35.154Z,1.77
2018-10-03T19:23:19.093Z,1.93
2018-10-03T19:28:03.119Z,1.40
2018-10-03T19:32:47.098Z,1.57
2018-10-03T19:37:37.607Z,1.67
2018-10-03T19:42:21.559Z,1.83
2018-10-03T19:47:05.869Z,2.47
2018-10-03T19:51:49.837Z,1.97
2018-10-03T19:56:33.975Z,1.87
2018-10-03T20:01:17.838Z,1.90
2018-10-03T20:06:01.716Z,2.20
2018-10-03T20:10:45.509Z,2.00
2018-10-03T20:15:29.375Z,1.60
2018-10-03T20:20:13.324Z,3.13
2018-10-03T20:24:57.299Z,1.90
2018-10-03T20:29:41.034Z,1.70
2018-10-03T20:34:25.067Z,1.50
2018-10-03T20:39:09.439Z,2.37
2018-10-03T20:43:53.467Z,1.87
2018-10-03T20:48:37.234Z,1.50
2018-10-03T20:53:20.940Z,1.70
2018-10-03T20:58:05.076Z,2.00
2018-10-03T21:02:49.064Z,1.60
2018-10-03T21:07:32.794Z,1.77
2018-10-03T21:12:16.515Z,2.00
2018-10-03T21:17:00.409Z,2.10
2018-10-03T21:21:44.162Z,1.50
2018-10-03T21:26:28.738Z,1.70
2018-10-03T21:31:12.516Z,2.13
2018-10-03T21:35:56.434Z,2.03
2018-10-03T21:40:40.219Z,2.27
2018-10-03T21:45:25.002Z,1.47
2018-10-03T21:50:08.810Z,1.70
2018-10-03T21:54:52.760Z,1.60
2018-10-03T21:59:36.584Z,1.93
2018-10-03T22:04:20.500Z,3.17
2018-10-03T22:09:05.508Z,2.00
2018-10-03T22:13:49.240Z,2.27
2018-10-03T22:18:33.428Z,1.73
2018-10-03T22:23:17.350Z,1.90
2018-10-03T22:28:01.336Z,2.00
2018-10-03T22:32:45.928Z,2.33
2018-10-03T22:37:30.652Z,2.20
2018-10-03T22:42:14.546Z,1.70
2018-10-03T22:46:58.394Z,2.37
2018-10-03T22:51:42.381Z,2.10
2018-10-03T22:56:26.069Z,2.17
2018-10-03T23:01:09.834Z,1.93
2018-10-03T23:05:53.850Z,2.20
2018-10-03T23:10:37.612Z,2.60
2018-10-03T23:15:21.594Z,1.60
2018-10-03T23:20:05.800Z,1.80
2018-10-03T23:24:49.507Z,1.67
2018-10-03T23:29:33.394Z,2.13
2018-10-03T23:34:17.156Z,1.93
2018-10-03T23:39:01.945Z,2.17
2018-10-03T23:43:45.792Z,1.97
2018-10-03T23:48:29.528Z,1.77
2018-10-03T23:53:13.334Z,1.70
2018-10-03T23:57:57.082Z,1.97
